LHR weather

London Heathrow Airport
London, England, United Kingdom

Public forecast

Using degrees Celsius for public forecast. Weather courtesy of forecast.io.

Current aviation weather report (METAR) for London Heathrow Airport

Retrieved 2019/10/23 02:20 UTC (9 minutes ago):

EGLL 230220Z AUTO VRB02KT 9999 NCD 05/05 Q1020 NOSIG

Aviation forecast (TAF) for London Heathrow Airport

Retrieved 2019-10-23 00:00 UTC (2 hours ago):

TAF EGLL 222254Z 2300/2406 10005KT 9999 FEW045 BECMG 2300/2303 7000 PROB40 TEMPO 2301/2308 4000 HZ BECMG 2308/2310 9999 PROB30 TEMPO 2310/2316 8000 -RA BKN014 PROB40 TEMPO 2316/2321 7000 SHRA BKN007 BECMG 2321/2324 4000 BR BKN006 TEMPO 2322/2406 BKN003